sensor_id;sensor_type;location;lat;lon;timestamp;P1;durP1;ratioP1;P2;durP2;ratioP2
5040;SDS011;2539;52.568;13.364;2023-07-31T00:00:52;3.73;;;2.30;;
5040;SDS011;2539;52.568;13.364;2023-07-31T00:03:18;5.30;;;2.27;;
5040;SDS011;2539;52.568;13.364;2023-07-31T00:05:44;6.13;;;2.33;;
5040;SDS011;2539;52.568;13.364;2023-07-31T00:08:11;5.07;;;2.40;;
5040;SDS011;2539;52.568;13.364;2023-07-31T00:10:37;2.90;;;1.80;;
5040;SDS011;2539;52.568;13.364;2023-07-31T00:13:02;9.63;;;2.30;;
5040;SDS011;2539;52.568;13.364;2023-07-31T00:15:28;3.30;;;2.03;;
5040;SDS011;2539;52.568;13.364;2023-07-31T00:17:55;5.20;;;2.23;;
5040;SDS011;2539;52.568;13.364;2023-07-31T00:20:21;4.70;;;2.33;;
5040;SDS011;2539;52.568;13.364;2023-07-31T00:22:55;5.13;;;2.27;;
5040;SDS011;2539;52.568;13.364;2023-07-31T00:25:21;4.90;;;1.90;;
5040;SDS011;2539;52.568;13.364;2023-07-31T00:27:48;4.70;;;2.13;;
5040;SDS011;2539;52.568;13.364;2023-07-31T00:30:14;4.10;;;2.30;;
5040;SDS011;2539;52.568;13.364;2023-07-31T00:32:40;4.70;;;2.07;;
5040;SDS011;2539;52.568;13.364;2023-07-31T00:35:06;4.80;;;2.13;;
5040;SDS011;2539;52.568;13.364;2023-07-31T00:37:33;3.40;;;2.00;;
5040;SDS011;2539;52.568;13.364;2023-07-31T00:39:59;3.97;;;2.20;;
5040;SDS011;2539;52.568;13.364;2023-07-31T00:42:26;3.00;;;2.00;;
5040;SDS011;2539;52.568;13.364;2023-07-31T00:44:52;2.70;;;2.10;;
5040;SDS011;2539;52.568;13.364;2023-07-31T00:47:18;4.73;;;2.17;;
5040;SDS011;2539;52.568;13.364;2023-07-31T00:49:44;4.80;;;1.90;;
5040;SDS011;2539;52.568;13.364;2023-07-31T00:52:11;6.37;;;2.50;;
5040;SDS011;2539;52.568;13.364;2023-07-31T00:54:38;5.40;;;1.90;;
5040;SDS011;2539;52.568;13.364;2023-07-31T00:57:04;4.20;;;2.40;;
5040;SDS011;2539;52.568;13.364;2023-07-31T00:59:33;3.23;;;2.10;;
5040;SDS011;2539;52.568;13.364;2023-07-31T01:02:00;4.87;;;1.87;;
5040;SDS011;2539;52.568;13.364;2023-07-31T01:04:26;3.17;;;1.90;;
5040;SDS011;2539;52.568;13.364;2023-07-31T01:06:56;4.43;;;2.27;;
5040;SDS011;2539;52.568;13.364;2023-07-31T01:12:15;5.97;;;2.50;;
5040;SDS011;2539;52.568;13.364;2023-07-31T01:14:52;5.10;;;2.30;;
5040;SDS011;2539;52.568;13.364;2023-07-31T01:17:31;5.53;;;2.27;;
5040;SDS011;2539;52.568;13.364;2023-07-31T01:19:59;4.20;;;2.37;;
5040;SDS011;2539;52.568;13.364;2023-07-31T01:22:30;4.13;;;2.03;;
5040;SDS011;2539;52.568;13.364;2023-07-31T01:25:15;3.93;;;2.80;;
5040;SDS011;2539;52.568;13.364;2023-07-31T01:28:04;6.00;;;2.83;;
5040;SDS011;2539;52.568;13.364;2023-07-31T01:30:34;3.70;;;2.23;;
5040;SDS011;2539;52.568;13.364;2023-07-31T01:33:03;5.30;;;2.27;;
5040;SDS011;2539;52.568;13.364;2023-07-31T01:35:33;4.30;;;2.40;;
5040;SDS011;2539;52.568;13.364;2023-07-31T01:38:00;3.43;;;2.37;;
5040;SDS011;2539;52.568;13.364;2023-07-31T01:40:26;5.20;;;2.90;;
5040;SDS011;2539;52.568;13.364;2023-07-31T01:42:53;4.60;;;2.80;;
5040;SDS011;2539;52.568;13.364;2023-07-31T01:45:19;4.73;;;2.23;;
5040;SDS011;2539;52.568;13.364;2023-07-31T01:47:45;4.57;;;2.73;;
5040;SDS011;2539;52.568;13.364;2023-07-31T01:50:11;2.97;;;2.10;;
5040;SDS011;2539;52.568;13.364;2023-07-31T01:52:38;7.60;;;3.00;;
5040;SDS011;2539;52.568;13.364;2023-07-31T01:55:04;3.07;;;2.17;;
5040;SDS011;2539;52.568;13.364;2023-07-31T01:57:30;3.60;;;2.60;;
5040;SDS011;2539;52.568;13.364;2023-07-31T01:59:57;3.43;;;2.50;;
5040;SDS011;2539;52.568;13.364;2023-07-31T02:02:23;4.43;;;2.93;;
5040;SDS011;2539;52.568;13.364;2023-07-31T02:04:49;3.93;;;2.23;;
5040;SDS011;2539;52.568;13.364;2023-07-31T02:07:15;4.53;;;2.90;;
5040;SDS011;2539;52.568;13.364;2023-07-31T02:09:42;5.33;;;3.03;;
5040;SDS011;2539;52.568;13.364;2023-07-31T02:12:08;4.80;;;2.37;;
5040;SDS011;2539;52.568;13.364;2023-07-31T02:14:35;3.80;;;2.33;;
5040;SDS011;2539;52.568;13.364;2023-07-31T02:17:01;4.90;;;2.63;;
5040;SDS011;2539;52.568;13.364;2023-07-31T02:19:27;4.37;;;2.70;;
5040;SDS011;2539;52.568;13.364;2023-07-31T02:21:53;3.40;;;2.67;;
5040;SDS011;2539;52.568;13.364;2023-07-31T02:24:20;3.93;;;2.70;;
5040;SDS011;2539;52.568;13.364;2023-07-31T02:26:46;5.40;;;2.60;;
5040;SDS011;2539;52.568;13.364;2023-07-31T02:29:12;4.20;;;2.87;;
5040;SDS011;2539;52.568;13.364;2023-07-31T02:31:39;4.63;;;2.80;;
5040;SDS011;2539;52.568;13.364;2023-07-31T02:34:05;3.63;;;2.73;;
5040;SDS011;2539;52.568;13.364;2023-07-31T02:36:30;4.23;;;2.70;;
5040;SDS011;2539;52.568;13.364;2023-07-31T02:38:56;4.77;;;2.80;;
5040;SDS011;2539;52.568;13.364;2023-07-31T02:41:21;5.07;;;2.87;;
5040;SDS011;2539;52.568;13.364;2023-07-31T02:43:47;4.80;;;2.63;;
5040;SDS011;2539;52.568;13.364;2023-07-31T02:46:14;4.20;;;2.83;;
5040;SDS011;2539;52.568;13.364;2023-07-31T02:48:40;8.03;;;2.97;;
5040;SDS011;2539;52.568;13.364;2023-07-31T02:51:06;5.60;;;2.80;;
5040;SDS011;2539;52.568;13.364;2023-07-31T02:53:32;4.00;;;2.80;;
5040;SDS011;2539;52.568;13.364;2023-07-31T02:55:59;4.20;;;3.00;;
5040;SDS011;2539;52.568;13.364;2023-07-31T02:58:25;4.30;;;2.33;;
5040;SDS011;2539;52.568;13.364;2023-07-31T03:00:51;6.17;;;2.90;;
5040;SDS011;2539;52.568;13.364;2023-07-31T03:03:17;7.20;;;3.43;;
5040;SDS011;2539;52.568;13.364;2023-07-31T03:05:43;3.93;;;3.00;;
5040;SDS011;2539;52.568;13.364;2023-07-31T03:08:10;3.77;;;3.00;;
5040;SDS011;2539;52.568;13.364;2023-07-31T03:10:36;5.60;;;3.30;;
5040;SDS011;2539;52.568;13.364;2023-07-31T03:13:02;3.63;;;3.20;;
5040;SDS011;2539;52.568;13.364;2023-07-31T03:15:28;5.23;;;2.83;;
5040;SDS011;2539;52.568;13.364;2023-07-31T03:17:55;4.97;;;3.23;;
5040;SDS011;2539;52.568;13.364;2023-07-31T03:20:21;5.33;;;3.30;;
5040;SDS011;2539;52.568;13.364;2023-07-31T03:22:47;6.00;;;3.57;;
5040;SDS011;2539;52.568;13.364;2023-07-31T03:25:13;7.53;;;3.93;;
5040;SDS011;2539;52.568;13.364;2023-07-31T03:27:40;7.17;;;4.10;;
5040;SDS011;2539;52.568;13.364;2023-07-31T03:30:06;6.33;;;3.77;;
5040;SDS011;2539;52.568;13.364;2023-07-31T03:32:33;6.37;;;3.87;;
5040;SDS011;2539;52.568;13.364;2023-07-31T03:34:59;7.50;;;3.50;;
5040;SDS011;2539;52.568;13.364;2023-07-31T03:37:26;7.23;;;4.30;;
5040;SDS011;2539;52.568;13.364;2023-07-31T03:39:52;4.90;;;4.03;;
5040;SDS011;2539;52.568;13.364;2023-07-31T03:42:18;6.20;;;3.97;;
5040;SDS011;2539;52.568;13.364;2023-07-31T03:44:45;5.70;;;3.50;;
5040;SDS011;2539;52.568;13.364;2023-07-31T03:47:11;5.77;;;3.63;;
5040;SDS011;2539;52.568;13.364;2023-07-31T03:49:37;5.97;;;4.20;;
5040;SDS011;2539;52.568;13.364;2023-07-31T03:52:04;6.73;;;3.83;;
5040;SDS011;2539;52.568;13.364;2023-07-31T03:54:30;9.40;;;4.13;;
5040;SDS011;2539;52.568;13.364;2023-07-31T03:56:56;4.60;;;3.50;;
5040;SDS011;2539;52.568;13.364;2023-07-31T03:59:23;5.23;;;3.67;;
5040;SDS011;2539;52.568;13.364;2023-07-31T04:01:49;7.80;;;3.73;;
5040;SDS011;2539;52.568;13.364;2023-07-31T04:04:15;5.40;;;4.00;;
5040;SDS011;2539;52.568;13.364;2023-07-31T04:06:41;7.00;;;3.50;;
5040;SDS011;2539;52.568;13.364;2023-07-31T04:09:08;7.70;;;3.60;;
5040;SDS011;2539;52.568;13.364;2023-07-31T04:11:34;4.10;;;3.37;;
5040;SDS011;2539;52.568;13.364;2023-07-31T04:14:00;7.60;;;4.03;;
5040;SDS011;2539;52.568;13.364;2023-07-31T04:16:26;7.67;;;4.00;;
5040;SDS011;2539;52.568;13.364;2023-07-31T04:18:53;8.20;;;6.50;;
5040;SDS011;2539;52.568;13.364;2023-07-31T04:21:19;8.47;;;4.13;;
5040;SDS011;2539;52.568;13.364;2023-07-31T04:23:45;9.00;;;4.40;;
5040;SDS011;2539;52.568;13.364;2023-07-31T04:26:11;5.90;;;3.90;;
5040;SDS011;2539;52.568;13.364;2023-07-31T04:28:38;8.33;;;4.50;;
5040;SDS011;2539;52.568;13.364;2023-07-31T04:31:04;9.23;;;4.60;;
5040;SDS011;2539;52.568;13.364;2023-07-31T04:33:30;6.23;;;4.40;;
5040;SDS011;2539;52.568;13.364;2023-07-31T04:35:56;6.97;;;4.20;;
5040;SDS011;2539;52.568;13.364;2023-07-31T04:38:24;5.23;;;3.53;;
5040;SDS011;2539;52.568;13.364;2023-07-31T04:40:51;8.27;;;4.77;;
5040;SDS011;2539;52.568;13.364;2023-07-31T04:43:18;5.47;;;3.87;;
5040;SDS011;2539;52.568;13.364;2023-07-31T04:45:47;4.73;;;3.40;;
5040;SDS011;2539;52.568;13.364;2023-07-31T04:48:14;7.97;;;4.33;;
5040;SDS011;2539;52.568;13.364;2023-07-31T04:50:40;5.83;;;4.20;;
5040;SDS011;2539;52.568;13.364;2023-07-31T04:53:06;7.70;;;3.90;;
5040;SDS011;2539;52.568;13.364;2023-07-31T04:55:33;7.07;;;3.97;;
5040;SDS011;2539;52.568;13.364;2023-07-31T04:57:59;6.83;;;4.70;;
5040;SDS011;2539;52.568;13.364;2023-07-31T05:00:25;7.50;;;4.40;;
5040;SDS011;2539;52.568;13.364;2023-07-31T05:02:51;6.53;;;5.80;;
5040;SDS011;2539;52.568;13.364;2023-07-31T05:05:18;6.60;;;4.67;;
5040;SDS011;2539;52.568;13.364;2023-07-31T05:08:05;8.53;;;5.27;;
5040;SDS011;2539;52.568;13.364;2023-07-31T05:10:32;7.40;;;4.40;;
5040;SDS011;2539;52.568;13.364;2023-07-31T05:12:58;6.30;;;4.83;;
5040;SDS011;2539;52.568;13.364;2023-07-31T05:15:24;9.47;;;5.47;;
5040;SDS011;2539;52.568;13.364;2023-07-31T05:17:51;8.13;;;5.40;;
5040;SDS011;2539;52.568;13.364;2023-07-31T05:20:16;7.97;;;6.00;;
5040;SDS011;2539;52.568;13.364;2023-07-31T05:22:42;10.00;;;7.00;;
5040;SDS011;2539;52.568;13.364;2023-07-31T05:25:07;5.97;;;4.73;;
5040;SDS011;2539;52.568;13.364;2023-07-31T05:27:33;6.60;;;5.17;;
5040;SDS011;2539;52.568;13.364;2023-07-31T05:29:59;9.13;;;4.40;;
5040;SDS011;2539;52.568;13.364;2023-07-31T05:32:26;6.10;;;3.87;;
5040;SDS011;2539;52.568;13.364;2023-07-31T05:34:52;6.10;;;3.77;;
5040;SDS011;2539;52.568;13.364;2023-07-31T05:37:19;8.43;;;3.77;;
5040;SDS011;2539;52.568;13.364;2023-07-31T05:39:45;6.10;;;3.80;;
5040;SDS011;2539;52.568;13.364;2023-07-31T05:42:12;5.13;;;3.30;;
5040;SDS011;2539;52.568;13.364;2023-07-31T05:44:38;7.93;;;3.43;;
5040;SDS011;2539;52.568;13.364;2023-07-31T05:47:04;8.20;;;4.10;;
5040;SDS011;2539;52.568;13.364;2023-07-31T05:49:31;6.47;;;3.50;;
5040;SDS011;2539;52.568;13.364;2023-07-31T05:51:57;5.87;;;3.47;;
5040;SDS011;2539;52.568;13.364;2023-07-31T05:54:24;9.53;;;3.40;;
5040;SDS011;2539;52.568;13.364;2023-07-31T05:56:50;9.23;;;4.17;;
5040;SDS011;2539;52.568;13.364;2023-07-31T05:59:16;10.20;;;4.97;;
5040;SDS011;2539;52.568;13.364;2023-07-31T06:01:43;7.17;;;3.30;;
5040;SDS011;2539;52.568;13.364;2023-07-31T06:04:09;4.70;;;3.13;;
5040;SDS011;2539;52.568;13.364;2023-07-31T06:06:35;6.23;;;3.10;;
5040;SDS011;2539;52.568;13.364;2023-07-31T06:09:01;6.53;;;4.00;;
5040;SDS011;2539;52.568;13.364;2023-07-31T06:11:29;5.27;;;2.80;;
5040;SDS011;2539;52.568;13.364;2023-07-31T06:13:55;5.23;;;3.50;;
5040;SDS011;2539;52.568;13.364;2023-07-31T06:16:22;8.07;;;3.60;;
5040;SDS011;2539;52.568;13.364;2023-07-31T06:18:48;26.30;;;4.50;;
5040;SDS011;2539;52.568;13.364;2023-07-31T06:21:14;7.00;;;6.30;;
5040;SDS011;2539;52.568;13.364;2023-07-31T06:23:40;5.97;;;2.97;;
5040;SDS011;2539;52.568;13.364;2023-07-31T06:26:05;5.93;;;2.97;;
5040;SDS011;2539;52.568;13.364;2023-07-31T06:28:31;7.90;;;3.70;;
5040;SDS011;2539;52.568;13.364;2023-07-31T06:30:58;5.23;;;3.47;;
5040;SDS011;2539;52.568;13.364;2023-07-31T06:33:24;6.90;;;3.60;;
5040;SDS011;2539;52.568;13.364;2023-07-31T06:35:51;9.80;;;3.60;;
5040;SDS011;2539;52.568;13.364;2023-07-31T06:38:22;7.07;;;3.83;;
5040;SDS011;2539;52.568;13.364;2023-07-31T06:40:49;9.50;;;3.83;;
5040;SDS011;2539;52.568;13.364;2023-07-31T06:43:16;5.67;;;2.90;;
5040;SDS011;2539;52.568;13.364;2023-07-31T06:45:42;7.40;;;3.70;;
5040;SDS011;2539;52.568;13.364;2023-07-31T06:48:08;5.03;;;3.10;;
5040;SDS011;2539;52.568;13.364;2023-07-31T06:50:34;6.17;;;3.80;;
5040;SDS011;2539;52.568;13.364;2023-07-31T06:53:01;4.67;;;3.27;;
5040;SDS011;2539;52.568;13.364;2023-07-31T06:55:28;3.27;;;2.90;;
5040;SDS011;2539;52.568;13.364;2023-07-31T06:57:55;9.03;;;3.27;;
5040;SDS011;2539;52.568;13.364;2023-07-31T07:00:22;7.20;;;3.27;;
5040;SDS011;2539;52.568;13.364;2023-07-31T07:02:48;6.90;;;3.43;;
5040;SDS011;2539;52.568;13.364;2023-07-31T07:05:15;6.87;;;3.27;;
5040;SDS011;2539;52.568;13.364;2023-07-31T07:07:42;4.73;;;3.20;;
5040;SDS011;2539;52.568;13.364;2023-07-31T07:10:09;7.43;;;3.40;;
5040;SDS011;2539;52.568;13.364;2023-07-31T07:12:35;10.57;;;4.67;;
5040;SDS011;2539;52.568;13.364;2023-07-31T07:15:02;6.07;;;3.40;;
5040;SDS011;2539;52.568;13.364;2023-07-31T07:17:29;4.43;;;3.30;;
5040;SDS011;2539;52.568;13.364;2023-07-31T07:19:59;5.50;;;3.80;;
5040;SDS011;2539;52.568;13.364;2023-07-31T07:22:26;7.80;;;3.93;;
5040;SDS011;2539;52.568;13.364;2023-07-31T07:24:53;5.93;;;3.20;;
5040;SDS011;2539;52.568;13.364;2023-07-31T07:27:19;4.90;;;3.60;;
5040;SDS011;2539;52.568;13.364;2023-07-31T07:29:46;4.50;;;3.57;;
5040;SDS011;2539;52.568;13.364;2023-07-31T07:32:12;6.80;;;4.30;;
5040;SDS011;2539;52.568;13.364;2023-07-31T07:34:38;6.10;;;3.70;;
5040;SDS011;2539;52.568;13.364;2023-07-31T07:37:05;5.93;;;4.80;;
5040;SDS011;2539;52.568;13.364;2023-07-31T07:39:31;8.40;;;4.47;;
5040;SDS011;2539;52.568;13.364;2023-07-31T07:41:57;7.90;;;3.57;;
5040;SDS011;2539;52.568;13.364;2023-07-31T07:44:24;8.80;;;5.40;;
5040;SDS011;2539;52.568;13.364;2023-07-31T07:46:50;5.60;;;4.20;;
5040;SDS011;2539;52.568;13.364;2023-07-31T07:49:16;7.27;;;4.13;;
5040;SDS011;2539;52.568;13.364;2023-07-31T07:51:42;4.43;;;3.17;;
5040;SDS011;2539;52.568;13.364;2023-07-31T07:54:09;6.03;;;3.40;;
5040;SDS011;2539;52.568;13.364;2023-07-31T07:56:35;7.07;;;3.63;;
5040;SDS011;2539;52.568;13.364;2023-07-31T07:59:02;5.17;;;3.20;;
5040;SDS011;2539;52.568;13.364;2023-07-31T08:01:28;3.67;;;3.00;;
5040;SDS011;2539;52.568;13.364;2023-07-31T08:03:54;3.90;;;2.83;;
5040;SDS011;2539;52.568;13.364;2023-07-31T08:06:20;4.93;;;3.30;;
5040;SDS011;2539;52.568;13.364;2023-07-31T08:08:48;5.13;;;3.00;;
5040;SDS011;2539;52.568;13.364;2023-07-31T08:11:14;3.40;;;2.73;;
5040;SDS011;2539;52.568;13.364;2023-07-31T08:13:40;6.60;;;3.37;;
5040;SDS011;2539;52.568;13.364;2023-07-31T08:16:07;3.60;;;2.90;;
5040;SDS011;2539;52.568;13.364;2023-07-31T08:18:34;5.40;;;3.50;;
5040;SDS011;2539;52.568;13.364;2023-07-31T08:21:01;8.00;;;2.97;;
5040;SDS011;2539;52.568;13.364;2023-07-31T08:23:28;4.07;;;2.83;;
5040;SDS011;2539;52.568;13.364;2023-07-31T08:25:54;5.53;;;4.33;;
5040;SDS011;2539;52.568;13.364;2023-07-31T08:28:20;13.07;;;8.93;;
5040;SDS011;2539;52.568;13.364;2023-07-31T08:30:47;4.10;;;2.90;;
5040;SDS011;2539;52.568;13.364;2023-07-31T08:33:13;5.20;;;3.10;;
5040;SDS011;2539;52.568;13.364;2023-07-31T08:35:39;3.90;;;3.20;;
5040;SDS011;2539;52.568;13.364;2023-07-31T08:38:06;6.50;;;3.00;;
5040;SDS011;2539;52.568;13.364;2023-07-31T08:40:35;4.73;;;3.30;;
5040;SDS011;2539;52.568;13.364;2023-07-31T08:43:02;5.43;;;3.10;;
5040;SDS011;2539;52.568;13.364;2023-07-31T08:45:28;3.77;;;3.03;;
5040;SDS011;2539;52.568;13.364;2023-07-31T08:47:54;4.33;;;2.40;;
5040;SDS011;2539;52.568;13.364;2023-07-31T08:50:22;5.00;;;3.83;;
5040;SDS011;2539;52.568;13.364;2023-07-31T08:52:48;3.83;;;2.80;;
5040;SDS011;2539;52.568;13.364;2023-07-31T08:55:16;3.27;;;2.10;;
5040;SDS011;2539;52.568;13.364;2023-07-31T08:57:43;4.10;;;2.40;;
5040;SDS011;2539;52.568;13.364;2023-07-31T09:00:11;3.50;;;2.90;;
5040;SDS011;2539;52.568;13.364;2023-07-31T09:02:46;4.20;;;3.17;;
5040;SDS011;2539;52.568;13.364;2023-07-31T09:05:18;5.13;;;2.30;;
5040;SDS011;2539;52.568;13.364;2023-07-31T09:07:45;3.13;;;2.10;;
5040;SDS011;2539;52.568;13.364;2023-07-31T09:10:13;3.40;;;2.30;;
5040;SDS011;2539;52.568;13.364;2023-07-31T09:12:40;3.60;;;2.20;;
5040;SDS011;2539;52.568;13.364;2023-07-31T09:15:06;4.30;;;2.90;;
5040;SDS011;2539;52.568;13.364;2023-07-31T09:17:35;4.53;;;2.77;;
5040;SDS011;2539;52.568;13.364;2023-07-31T09:20:12;3.10;;;2.50;;
5040;SDS011;2539;52.568;13.364;2023-07-31T09:22:45;3.13;;;2.47;;
5040;SDS011;2539;52.568;13.364;2023-07-31T09:25:17;2.67;;;2.10;;
5040;SDS011;2539;52.568;13.364;2023-07-31T09:27:51;2.43;;;1.93;;
5040;SDS011;2539;52.568;13.364;2023-07-31T09:30:24;2.80;;;2.07;;
5040;SDS011;2539;52.568;13.364;2023-07-31T09:32:52;3.20;;;2.50;;
5040;SDS011;2539;52.568;13.364;2023-07-31T09:35:30;2.90;;;2.20;;
5040;SDS011;2539;52.568;13.364;2023-07-31T09:37:59;4.90;;;2.50;;
5040;SDS011;2539;52.568;13.364;2023-07-31T09:40:27;2.87;;;2.30;;
5040;SDS011;2539;52.568;13.364;2023-07-31T09:43:01;3.87;;;2.10;;
5040;SDS011;2539;52.568;13.364;2023-07-31T09:45:29;6.27;;;2.17;;
5040;SDS011;2539;52.568;13.364;2023-07-31T09:47:56;2.83;;;2.30;;
5040;SDS011;2539;52.568;13.364;2023-07-31T09:50:23;2.87;;;2.33;;
5040;SDS011;2539;52.568;13.364;2023-07-31T09:52:51;3.23;;;2.60;;
5040;SDS011;2539;52.568;13.364;2023-07-31T09:55:18;4.33;;;2.57;;
5040;SDS011;2539;52.568;13.364;2023-07-31T09:57:46;2.80;;;2.30;;
5040;SDS011;2539;52.568;13.364;2023-07-31T10:00:15;3.23;;;2.10;;
5040;SDS011;2539;52.568;13.364;2023-07-31T10:02:46;3.30;;;2.60;;
5040;SDS011;2539;52.568;13.364;2023-07-31T10:05:14;4.03;;;3.13;;
5040;SDS011;2539;52.568;13.364;2023-07-31T10:07:42;3.60;;;2.50;;
5040;SDS011;2539;52.568;13.364;2023-07-31T10:10:14;3.30;;;3.00;;
5040;SDS011;2539;52.568;13.364;2023-07-31T10:12:41;3.10;;;2.10;;
5040;SDS011;2539;52.568;13.364;2023-07-31T10:15:09;2.80;;;2.20;;
5040;SDS011;2539;52.568;13.364;2023-07-31T10:17:36;3.90;;;2.50;;
5040;SDS011;2539;52.568;13.364;2023-07-31T10:20:03;4.97;;;2.50;;
5040;SDS011;2539;52.568;13.364;2023-07-31T10:22:32;4.00;;;2.67;;
5040;SDS011;2539;52.568;13.364;2023-07-31T10:24:59;3.20;;;2.43;;
5040;SDS011;2539;52.568;13.364;2023-07-31T10:27:26;3.37;;;2.60;;
5040;SDS011;2539;52.568;13.364;2023-07-31T10:29:55;4.57;;;3.60;;
5040;SDS011;2539;52.568;13.364;2023-07-31T10:32:24;5.10;;;3.43;;
5040;SDS011;2539;52.568;13.364;2023-07-31T10:34:51;4.40;;;3.40;;
5040;SDS011;2539;52.568;13.364;2023-07-31T10:37:27;4.70;;;3.87;;
5040;SDS011;2539;52.568;13.364;2023-07-31T10:45:10;4.80;;;3.50;;
5040;SDS011;2539;52.568;13.364;2023-07-31T10:47:38;6.60;;;4.20;;
5040;SDS011;2539;52.568;13.364;2023-07-31T10:50:14;4.23;;;3.70;;
5040;SDS011;2539;52.568;13.364;2023-07-31T10:52:46;7.43;;;3.50;;
5040;SDS011;2539;52.568;13.364;2023-07-31T10:57:57;7.23;;;3.80;;
5040;SDS011;2539;52.568;13.364;2023-07-31T11:00:30;7.23;;;4.10;;
5040;SDS011;2539;52.568;13.364;2023-07-31T11:03:15;5.90;;;4.70;;
5040;SDS011;2539;52.568;13.364;2023-07-31T11:08:21;5.37;;;4.10;;
5040;SDS011;2539;52.568;13.364;2023-07-31T11:10:50;5.90;;;3.60;;
5040;SDS011;2539;52.568;13.364;2023-07-31T11:13:29;5.40;;;4.07;;
5040;SDS011;2539;52.568;13.364;2023-07-31T11:15:56;6.27;;;4.53;;
5040;SDS011;2539;52.568;13.364;2023-07-31T11:18:22;7.03;;;4.13;;
5040;SDS011;2539;52.568;13.364;2023-07-31T11:20:49;6.10;;;4.57;;
5040;SDS011;2539;52.568;13.364;2023-07-31T11:23:16;5.53;;;3.57;;
5040;SDS011;2539;52.568;13.364;2023-07-31T11:25:43;4.43;;;3.90;;
5040;SDS011;2539;52.568;13.364;2023-07-31T11:28:10;7.60;;;4.30;;
5040;SDS011;2539;52.568;13.364;2023-07-31T11:30:42;7.30;;;4.97;;
5040;SDS011;2539;52.568;13.364;2023-07-31T11:33:09;5.10;;;4.00;;
5040;SDS011;2539;52.568;13.364;2023-07-31T11:35:41;7.90;;;4.30;;
5040;SDS011;2539;52.568;13.364;2023-07-31T11:38:26;6.20;;;3.37;;
5040;SDS011;2539;52.568;13.364;2023-07-31T11:40:54;8.43;;;5.13;;
5040;SDS011;2539;52.568;13.364;2023-07-31T11:43:22;8.43;;;5.00;;
5040;SDS011;2539;52.568;13.364;2023-07-31T11:45:53;5.57;;;4.50;;
5040;SDS011;2539;52.568;13.364;2023-07-31T11:50:49;8.83;;;4.37;;
5040;SDS011;2539;52.568;13.364;2023-07-31T11:53:18;6.20;;;4.10;;
5040;SDS011;2539;52.568;13.364;2023-07-31T11:55:51;6.50;;;4.00;;
5040;SDS011;2539;52.568;13.364;2023-07-31T11:58:17;4.17;;;3.57;;
5040;SDS011;2539;52.568;13.364;2023-07-31T12:00:44;7.63;;;4.10;;
5040;SDS011;2539;52.568;13.364;2023-07-31T12:03:10;4.90;;;3.97;;
5040;SDS011;2539;52.568;13.364;2023-07-31T12:05:37;7.40;;;4.80;;
5040;SDS011;2539;52.568;13.364;2023-07-31T12:08:08;6.13;;;4.57;;
5040;SDS011;2539;52.568;13.364;2023-07-31T12:10:36;10.90;;;3.97;;
5040;SDS011;2539;52.568;13.364;2023-07-31T12:13:04;4.57;;;3.93;;
5040;SDS011;2539;52.568;13.364;2023-07-31T12:15:43;6.07;;;4.30;;
5040;SDS011;2539;52.568;13.364;2023-07-31T12:18:11;4.30;;;3.87;;
5040;SDS011;2539;52.568;13.364;2023-07-31T12:20:41;4.43;;;4.00;;
5040;SDS011;2539;52.568;13.364;2023-07-31T12:23:12;5.17;;;3.30;;
5040;SDS011;2539;52.568;13.364;2023-07-31T12:25:43;5.50;;;3.20;;
5040;SDS011;2539;52.568;13.364;2023-07-31T12:28:09;5.83;;;3.60;;
5040;SDS011;2539;52.568;13.364;2023-07-31T12:30:39;4.60;;;3.53;;
5040;SDS011;2539;52.568;13.364;2023-07-31T12:33:07;6.90;;;4.40;;
5040;SDS011;2539;52.568;13.364;2023-07-31T12:35:46;5.73;;;3.97;;
5040;SDS011;2539;52.568;13.364;2023-07-31T12:38:13;5.13;;;3.27;;
5040;SDS011;2539;52.568;13.364;2023-07-31T12:40:40;5.00;;;3.60;;
5040;SDS011;2539;52.568;13.364;2023-07-31T12:43:07;4.50;;;3.60;;
5040;SDS011;2539;52.568;13.364;2023-07-31T12:45:34;6.20;;;3.27;;
5040;SDS011;2539;52.568;13.364;2023-07-31T12:48:01;6.63;;;4.40;;
5040;SDS011;2539;52.568;13.364;2023-07-31T12:50:27;4.90;;;3.10;;
5040;SDS011;2539;52.568;13.364;2023-07-31T12:52:53;6.93;;;4.87;;
5040;SDS011;2539;52.568;13.364;2023-07-31T12:55:21;10.53;;;8.23;;
5040;SDS011;2539;52.568;13.364;2023-07-31T12:57:48;6.20;;;5.20;;
5040;SDS011;2539;52.568;13.364;2023-07-31T13:00:15;6.27;;;4.57;;
5040;SDS011;2539;52.568;13.364;2023-07-31T13:02:42;6.90;;;3.87;;
5040;SDS011;2539;52.568;13.364;2023-07-31T13:05:08;4.07;;;3.20;;
5040;SDS011;2539;52.568;13.364;2023-07-31T13:07:34;5.10;;;3.87;;
5040;SDS011;2539;52.568;13.364;2023-07-31T13:10:00;9.40;;;3.30;;
5040;SDS011;2539;52.568;13.364;2023-07-31T13:12:26;6.50;;;3.47;;
5040;SDS011;2539;52.568;13.364;2023-07-31T13:14:51;4.30;;;3.17;;
5040;SDS011;2539;52.568;13.364;2023-07-31T13:17:17;5.33;;;3.00;;
5040;SDS011;2539;52.568;13.364;2023-07-31T13:19:44;4.20;;;3.50;;
5040;SDS011;2539;52.568;13.364;2023-07-31T13:22:10;6.77;;;5.03;;
5040;SDS011;2539;52.568;13.364;2023-07-31T13:24:37;3.97;;;2.70;;
5040;SDS011;2539;52.568;13.364;2023-07-31T13:27:03;4.27;;;2.97;;
5040;SDS011;2539;52.568;13.364;2023-07-31T13:29:29;4.03;;;3.13;;
5040;SDS011;2539;52.568;13.364;2023-07-31T13:31:56;3.93;;;3.07;;
5040;SDS011;2539;52.568;13.364;2023-07-31T13:34:22;4.63;;;3.50;;
5040;SDS011;2539;52.568;13.364;2023-07-31T13:36:48;4.23;;;3.53;;
5040;SDS011;2539;52.568;13.364;2023-07-31T13:39:14;6.60;;;4.90;;
5040;SDS011;2539;52.568;13.364;2023-07-31T13:41:41;6.30;;;3.73;;
5040;SDS011;2539;52.568;13.364;2023-07-31T13:44:07;3.93;;;3.13;;
5040;SDS011;2539;52.568;13.364;2023-07-31T13:46:34;4.80;;;3.67;;
5040;SDS011;2539;52.568;13.364;2023-07-31T13:49:00;4.17;;;2.87;;
5040;SDS011;2539;52.568;13.364;2023-07-31T13:51:27;7.63;;;4.40;;
5040;SDS011;2539;52.568;13.364;2023-07-31T13:53:54;4.90;;;2.37;;
5040;SDS011;2539;52.568;13.364;2023-07-31T13:56:20;3.30;;;2.67;;
5040;SDS011;2539;52.568;13.364;2023-07-31T13:58:46;9.03;;;6.37;;
5040;SDS011;2539;52.568;13.364;2023-07-31T14:01:12;4.83;;;3.43;;
5040;SDS011;2539;52.568;13.364;2023-07-31T14:03:39;5.40;;;4.37;;
5040;SDS011;2539;52.568;13.364;2023-07-31T14:06:05;5.63;;;3.97;;
5040;SDS011;2539;52.568;13.364;2023-07-31T14:08:31;4.90;;;4.00;;
5040;SDS011;2539;52.568;13.364;2023-07-31T14:10:57;5.00;;;3.67;;
5040;SDS011;2539;52.568;13.364;2023-07-31T14:13:23;7.70;;;5.37;;
5040;SDS011;2539;52.568;13.364;2023-07-31T14:15:50;12.10;;;4.17;;
5040;SDS011;2539;52.568;13.364;2023-07-31T14:18:16;7.20;;;3.90;;
5040;SDS011;2539;52.568;13.364;2023-07-31T14:20:43;7.70;;;3.70;;
5040;SDS011;2539;52.568;13.364;2023-07-31T14:23:09;5.23;;;4.27;;
5040;SDS011;2539;52.568;13.364;2023-07-31T14:25:36;5.20;;;4.70;;
5040;SDS011;2539;52.568;13.364;2023-07-31T14:28:02;10.47;;;4.30;;
5040;SDS011;2539;52.568;13.364;2023-07-31T14:30:28;5.17;;;3.93;;
5040;SDS011;2539;52.568;13.364;2023-07-31T14:32:55;6.67;;;3.80;;
5040;SDS011;2539;52.568;13.364;2023-07-31T14:35:21;6.73;;;3.33;;
5040;SDS011;2539;52.568;13.364;2023-07-31T14:37:47;5.13;;;3.83;;
5040;SDS011;2539;52.568;13.364;2023-07-31T14:40:14;5.20;;;3.90;;
5040;SDS011;2539;52.568;13.364;2023-07-31T14:42:40;4.90;;;4.40;;
5040;SDS011;2539;52.568;13.364;2023-07-31T14:45:07;7.90;;;3.67;;
5040;SDS011;2539;52.568;13.364;2023-07-31T14:47:34;10.53;;;8.60;;
5040;SDS011;2539;52.568;13.364;2023-07-31T14:50:01;8.33;;;7.43;;
5040;SDS011;2539;52.568;13.364;2023-07-31T14:52:28;7.00;;;5.10;;
5040;SDS011;2539;52.568;13.364;2023-07-31T14:54:55;5.73;;;3.90;;
5040;SDS011;2539;52.568;13.364;2023-07-31T14:57:21;6.00;;;4.60;;
5040;SDS011;2539;52.568;13.364;2023-07-31T14:59:47;5.40;;;3.67;;
5040;SDS011;2539;52.568;13.364;2023-07-31T15:02:14;5.17;;;4.63;;
5040;SDS011;2539;52.568;13.364;2023-07-31T15:04:40;5.63;;;4.03;;
5040;SDS011;2539;52.568;13.364;2023-07-31T15:07:07;5.53;;;3.60;;
5040;SDS011;2539;52.568;13.364;2023-07-31T15:09:33;5.33;;;4.00;;
5040;SDS011;2539;52.568;13.364;2023-07-31T15:11:59;4.63;;;4.23;;
5040;SDS011;2539;52.568;13.364;2023-07-31T15:14:26;4.20;;;3.80;;
5040;SDS011;2539;52.568;13.364;2023-07-31T15:16:56;4.90;;;3.80;;